Terminal Aerodrome Forecast
Issued by NWS

Home | Current Version | Previous Version | Text Only | Print | Product List | Glossary On
Versions: 1 2 3 4 5 6 7 8 9 10 11 12
000
FTUS44 KLZK 231100
TAFBPK
TAF
KBPK 231136Z 2312/2412 11006KT P6SM VCSH SCT025 OVC050
      TEMPO 2313/2316 6SM -SHRA BKN025
     FM231600 13009KT P6SM VCTS BKN050CB
     FM240000 12007KT P6SM VCTS SCT025 BKN050CB PROB30 2406/2412 5SM
      -TSRA BR BKN025CB=

USA.gov is the U.S. government's official web portal to all federal, state and local government web resources and services.